To NAV CANADA Home Page Login to a new session Search on AWWS site Feedback and Comments Disclaimer Vers la page française équivalente Tips FAQ What's new on the site To the Forecasts and Observations / NOTAM section To "File a Flight Plan" website Publications and other links Update of the User's profile FIC Telephone Numbers My Weather Data Folder Route Weather Data Regional Weather Data Local Weather Data To the Forecasts and Observations / NOTAM section
Request Generated 09/25/2016 at 15:37:28 UTC . Weather information available at that time is displayed.

METAR/TAF

GRANDE PRAIRIE/AB    

METAR CYQU 251500Z VRB02KT 25SM FEW065 BKN090 OVC150 05/01 A3015 RMK
SC2AC4AC2 SLP234=
METAR CYQU 251400Z 16003KT 25SM BKN067 OVC120 04/01 A3015 RMK AC5AC3
SLP233=
METAR CYQU 251300Z 00000KT 25SM BKN086 BKN150 04/01 A3015 RMK AC5AC2
SLP232=

TAF CYQU 251238Z 2513/2601 17004KT P6SM BKN150
BECMG 2513/2515 22005KT BKN060
FM251500 17006KT P6SM BKN060
BECMG 2516/2518 15010KT
FM252000 25012KT P6SM BKN070
RMK NXT FCST BY 251900Z=
Your time UTC time
Weather data provided by Environment Canada and NAV CANADA